Time;durP1;ratioP1;P1;durP2;ratioP2;P2;SDS_P1;SDS_P2;PMS_P1;PMS_P2;Temp;Humidity;BMP_temperature;BMP_pressure;BME280_temperature;BME280_humidity;BME280_pressure;Samples;Min_cycle;Max_cycle;Signal;HPM_P1;HPM_P2
2022/12/07 00:01:07;;;;;;;;;39.50;34.75;;;;;11.96;77.61;100308.84;5057945;28;46156;-67
2022/12/07 00:03:33;;;;;;;;;54.50;42.00;;;;;11.98;77.52;100311.47;5058328;28;45325;-81
2022/12/07 00:06:00;;;;;;;;;43.50;36.00;;;;;11.82;77.89;100284.09;5058552;28;45461;-67
2022/12/07 00:08:26;;;;;;;;;59.00;45.00;;;;;11.83;78.40;100294.59;5057514;28;45453;-80
2022/12/07 00:10:51;;;;;;;;;39.50;33.75;;;;;11.78;78.61;100305.81;5058483;28;45434;-67
2022/12/07 00:13:17;;;;;;;;;20.00;16.00;;;;;11.75;78.96;100298.78;5058349;28;45433;-67
2022/12/07 00:15:43;;;;;;;;;18.50;17.50;;;;;11.79;78.08;100303.22;5058363;28;45456;-72
2022/12/07 00:18:08;;;;;;;;;21.00;16.00;;;;;11.81;78.43;100298.91;5058672;28;45338;-76
2022/12/07 00:20:34;;;;;;;;;25.25;23.00;;;;;11.85;78.25;100305.09;5058217;28;46093;-67
2022/12/07 00:22:59;;;;;;;;;21.00;19.75;;;;;11.83;78.09;100294.59;5058200;28;45460;-67
2022/12/07 00:25:25;;;;;;;;;22.50;18.50;;;;;11.64;77.71;100246.22;5058366;28;45260;-67
2022/12/07 00:27:55;;;;;;;;;20.25;18.25;;;;;11.93;77.81;100290.47;5058598;28;45586;-68
2022/12/07 00:30:21;;;;;;;;;18.00;16.75;;;;;11.97;77.54;100291.41;5058174;28;45578;-67
2022/12/07 00:32:47;;;;;;;;;17.00;15.75;;;;;11.98;78.00;100290.53;5056672;28;45582;-68
2022/12/07 00:35:13;;;;;;;;;20.00;17.25;;;;;11.99;77.84;100289.69;5057792;28;45465;-81
2022/12/07 00:37:38;;;;;;;;;25.00;22.25;;;;;12.01;77.77;100290.63;5058047;28;45415;-67
2022/12/07 00:40:05;;;;;;;;;15.75;14.75;;;;;12.00;77.61;100281.88;5057270;28;45456;-67
2022/12/07 00:42:30;;;;;;;;;20.25;17.25;;;;;12.07;77.57;100289.00;5057831;28;45479;-67
2022/12/07 00:44:56;;;;;;;;;19.00;16.75;;;;;12.07;77.37;100281.13;5057877;28;45348;-67
2022/12/07 00:47:21;;;;;;;;;18.75;16.00;;;;;11.94;77.39;100252.97;5058395;28;45399;-67
2022/12/07 00:49:47;;;;;;;;;13.75;13.00;;;;;12.08;77.22;100282.91;5057462;28;46108;-73
2022/12/07 00:52:12;;;;;;;;;13.75;12.00;;;;;12.09;77.53;100275.94;5057545;28;45289;-68
2022/12/07 00:54:39;;;;;;;;;12.00;11.00;;;;;12.09;77.62;100271.56;5057837;28;45302;-68
2022/12/07 00:57:04;;;;;;;;;17.25;15.25;;;;;11.76;77.84;100216.81;5057919;28;45302;-68
2022/12/07 00:59:30;;;;;;;;;25.00;22.75;;;;;12.09;77.77;100274.19;5057127;28;46093;-68
2022/12/07 01:01:55;;;;;;;;;20.25;17.75;;;;;12.00;77.24;100252.22;5057832;28;45824;-68
2022/12/07 01:04:21;;;;;;;;;19.75;18.00;;;;;12.12;77.62;100271.66;5058360;28;45242;-86
2022/12/07 01:06:47;;;;;;;;;20.00;15.75;;;;;12.04;77.32;100259.28;5057757;28;45287;-67
2022/12/07 01:09:12;;;;;;;;;20.75;18.00;;;;;12.13;77.22;100270.78;5057172;28;45547;-83
2022/12/07 01:11:38;;;;;;;;;21.75;18.75;;;;;12.00;77.38;100242.63;5057340;28;45295;-83
2022/12/07 01:14:03;;;;;;;;;21.75;17.75;;;;;12.06;77.09;100253.19;5056714;28;45484;-68
2022/12/07 01:16:31;;;;;;;;;16.25;15.50;;;;;12.14;76.89;100264.69;5057599;28;45279;-82
2022/12/07 01:18:59;;;;;;;;;17.00;14.75;;;;;12.14;77.25;100262.09;5057220;28;46126;-73
2022/12/07 01:21:28;;;;;;;;;20.50;17.75;;;;;12.13;77.34;100257.69;5057069;28;45453;-67
2022/12/07 01:23:53;;;;;;;;;24.25;22.75;;;;;12.11;77.41;100256.78;5057412;28;45511;-67
2022/12/07 01:26:23;;;;;;;;;24.75;23.00;;;;;12.12;77.39;100260.31;5057342;28;45518;-68
2022/12/07 01:28:50;;;;;;;;;15.75;15.00;;;;;12.12;77.60;100253.31;5056984;28;46132;-78
2022/12/07 01:31:22;;;;;;;;;19.50;18.00;;;;;11.98;77.49;100236.47;5056964;28;45421;-72
2022/12/07 01:33:50;;;;;;;;;25.75;22.75;;;;;12.08;77.72;100248.00;5056976;28;45696;-83
2022/12/07 01:36:22;;;;;;;;;24.25;21.00;;;;;12.03;77.51;100244.41;5056938;28;45532;-84
2022/12/07 01:38:52;;;;;;;;;31.00;29.00;;;;;12.04;77.89;100254.91;5056845;28;45768;-83
2022/12/07 01:41:19;;;;;;;;;14.50;12.00;;;;;12.03;77.38;100257.50;5057110;28;46486;-83
2022/12/07 01:44:11;;;;;;;;;10.00;9.25;;;;;12.01;77.67;100259.19;5057018;28;45430;-82
2022/12/07 01:46:38;;;;;;;;;14.25;12.25;;;;;11.67;77.82;100204.41;5056951;28;45601;-83
2022/12/07 01:49:06;;;;;;;;;14.00;12.50;;;;;11.96;77.79;100256.50;5057177;28;45497;-82
2022/12/07 01:51:32;;;;;;;;;13.50;11.00;;;;;11.95;78.00;100254.72;5057008;28;45354;-82
2022/12/07 01:53:59;;;;;;;;;11.50;11.50;;;;;11.95;78.12;100252.09;5057643;28;45312;-69
2022/12/07 01:56:26;;;;;;;;;12.50;10.50;;;;;11.97;77.81;100253.00;5057391;28;45729;-69
2022/12/07 01:58:54;;;;;;;;;12.25;10.50;;;;;11.74;77.83;100219.41;5054996;28;46311;-68
2022/12/07 02:01:19;;;;;;;;;11.50;11.50;;;;;11.97;78.24;100252.13;5056338;28;45547;-83
2022/12/07 02:03:45;;;;;;;;;10.00;7.75;;;;;11.97;77.79;100262.59;5056610;28;45450;-67
2022/12/07 02:06:16;;;;;;;;;10.75;10.75;;;;;11.98;78.08;100256.50;5056782;28;45506;-82
2022/12/07 02:08:43;;;;;;;;;10.75;10.75;;;;;12.00;78.02;100253.09;5056382;28;45523;-84
2022/12/07 02:11:09;;;;;;;;;10.25;9.75;;;;;12.02;77.90;100254.00;5056709;28;45851;-75
2022/12/07 02:13:38;;;;;;;;;11.25;10.00;;;;;12.02;77.55;100247.88;5056517;28;45460;-82
2022/12/07 02:16:06;;;;;;;;;10.75;10.00;;;;;12.05;77.83;100256.66;5056612;28;45453;-79
2022/12/07 02:18:38;;;;;;;;;13.50;12.75;;;;;12.07;77.47;100254.94;5056447;28;46301;-83
2022/12/07 02:21:15;;;;;;;;;14.50;13.75;;;;;12.03;77.58;100249.63;5056337;28;45429;-67
2022/12/07 02:23:52;;;;;;;;;35.00;31.50;;;;;12.10;77.78;100262.00;5056368;28;45333;-69
2022/12/07 02:26:42;;;;;;;;;14.25;14.25;;;;;12.11;77.44;100264.63;5056519;28;45502;-83
2022/12/07 02:29:24;;;;;;;;;16.75;15.00;;;;;12.11;77.39;100259.41;5056329;28;45652;-82
2022/12/07 02:32:02;;;;;;;;;14.50;14.00;;;;;12.12;77.50;100261.16;5057022;28;45290;-67
2022/12/07 02:34:39;;;;;;;;;26.25;23.75;;;;;12.12;77.50;100263.78;5060254;28;45702;-82
2022/12/07 02:37:17;;;;;;;;;27.50;26.00;;;;;12.14;77.36;100261.22;5057923;28;45758;-82
2022/12/07 02:39:54;;;;;;;;;20.50;20.00;;;;;12.00;77.38;100231.28;5055690;28;45971;-74
2022/12/07 02:42:30;;;;;;;;;17.25;15.75;;;;;12.16;77.23;100254.25;5055363;28;46077;-83
2022/12/07 02:44:56;;;;;;;;;8.75;8.00;;;;;12.17;77.27;100250.78;5056950;28;45426;-82
2022/12/07 02:47:24;;;;;;;;;7.75;6.75;;;;;12.19;77.25;100258.66;5058418;28;45328;-76
2022/12/07 02:49:52;;;;;;;;;6.50;6.50;;;;;12.20;77.38;100252.59;5057824;28;45407;-79
2022/12/07 02:52:17;;;;;;;;;7.00;6.25;;;;;12.20;76.97;100249.97;5057769;28;45511;-82
2022/12/07 02:54:43;;;;;;;;;5.00;5.00;;;;;12.21;77.47;100239.50;5058021;28;45485;-73
2022/12/07 02:57:40;;;;;;;;;9.50;7.50;;;;;12.21;77.48;100249.09;5058293;28;45226;-82
2022/12/07 03:00:14;;;;;;;;;6.00;6.00;;;;;12.22;77.56;100243.03;5055969;28;46397;-82
2022/12/07 03:03:04;;;;;;;;;8.50;7.75;;;;;12.22;77.43;100241.28;5055221;28;45461;-67
2022/12/07 03:05:51;;;;;;;;;10.00;8.00;;;;;12.23;77.45;100250.00;5056834;28;45579;-77
2022/12/07 03:08:57;;;;;;;;;13.50;12.00;;;;;12.18;77.57;100243.81;5067452;28;45624;-81
2022/12/07 03:11:40;;;;;;;;;13.50;12.75;;;;;12.07;77.07;100215.69;5055316;28;46008;-76
2022/12/07 03:14:25;;;;;;;;;10.75;10.00;;;;;12.23;77.31;100237.78;5055632;28;45575;-80
2022/12/07 03:17:12;;;;;;;;;10.25;9.50;;;;;12.24;77.09;100236.94;5056506;28;45471;-79
2022/12/07 03:19:41;;;;;;;;;5.50;4.50;;;;;12.25;77.08;100241.31;5057382;28;45635;-75
2022/12/07 03:22:10;;;;;;;;;5.75;5.00;;;;;12.25;77.25;100243.06;5057599;28;46616;-70
2022/12/07 03:24:53;;;;;;;;;6.00;5.25;;;;;12.23;77.37;100231.69;5057216;28;45389;-81
2022/12/07 03:27:25;;;;;;;;;11.75;8.25;;;;;12.22;77.05;100227.31;5057383;28;45448;-82
2022/12/07 03:30:12;;;;;;;;;11.50;9.50;;;;;12.19;77.27;100224.63;5057387;28;45433;-78
2022/12/07 03:32:50;;;;;;;;;9.25;8.50;;;;;12.12;77.46;100221.91;5055649;28;45445;-82
2022/12/07 03:35:43;;;;;;;;;15.50;14.50;;;;;12.10;77.50;100227.97;5057110;28;45387;-71
2022/12/07 03:38:36;;;;;;;;;10.00;8.75;;;;;12.09;77.63;100223.56;5055700;28;45283;-69
2022/12/07 03:41:09;;;;;;;;;9.25;8.00;;;;;12.06;77.48;100219.16;5055147;28;45391;-80
2022/12/07 03:43:36;;;;;;;;;16.25;15.75;;;;;12.06;77.75;100215.69;5056903;28;46266;-83
2022/12/07 03:46:24;;;;;;;;;25.00;17.75;;;;;11.73;77.81;100170.50;5057028;28;45327;-81
2022/12/07 03:49:02;;;;;;;;;20.75;20.75;;;;;12.00;78.03;100213.81;5055794;28;45559;-76
2022/12/07 03:51:41;;;;;;;;;20.50;20.25;;;;;12.01;77.97;100215.56;5055834;28;45560;-72
2022/12/07 03:54:17;;;;;;;;;7.00;6.75;;;;;12.01;77.94;100218.19;5055084;28;45425;-79
2022/12/07 03:56:45;;;;;;;;;12.25;11.00;;;;;11.96;78.55;100217.22;5056805;28;45542;-66
2022/12/07 03:59:13;;;;;;;;;13.00;10.75;;;;;11.84;78.79;100201.28;5057063;28;45472;-79
2022/12/07 04:01:38;;;;;;;;;9.00;7.25;;;;;11.89;78.77;100210.97;5057053;28;45584;-81
2022/12/07 04:04:04;;;;;;;;;7.50;6.00;;;;;11.89;78.88;100213.59;5056783;28;45389;-75
2022/12/07 04:06:29;;;;;;;;;16.25;14.25;;;;;11.86;79.27;100210.91;5057405;28;45461;-75
2022/12/07 04:08:55;;;;;;;;;8.75;8.75;;;;;11.82;79.21;100208.22;5056967;28;45176;-77
2022/12/07 04:11:20;;;;;;;;;12.50;11.00;;;;;11.83;79.21;100207.34;5058171;28;45601;-81
2022/12/07 04:16:30;;;;;;;;;7.00;6.00;;;;;11.94;78.61;100208.47;5058307;28;45471;-75
2022/12/07 04:18:55;;;;;;;;;7.75;6.50;;;;;11.96;78.24;100204.16;5058125;28;45547;-79
2022/12/07 04:21:21;;;;;;;;;7.00;6.00;;;;;11.99;78.45;100204.19;5058683;28;45786;-82
2022/12/07 04:23:46;;;;;;;;;7.50;6.00;;;;;12.01;78.43;100202.47;5058391;28;46467;-72
2022/12/07 04:26:12;;;;;;;;;7.00;7.00;;;;;12.03;78.23;100200.78;5058339;28;45446;-82
2022/12/07 04:28:37;;;;;;;;;5.25;4.25;;;;;12.05;78.29;100201.69;5058436;28;45511;-81
2022/12/07 04:31:03;;;;;;;;;8.50;8.25;;;;;11.94;78.13;100183.16;5058486;28;45428;-76
2022/12/07 04:33:28;;;;;;;;;6.00;6.00;;;;;12.11;77.78;100204.41;5058319;28;46196;-83
2022/12/07 04:35:54;;;;;;;;;5.00;5.00;;;;;12.15;77.67;100200.13;5057974;28;45308;-76
2022/12/07 04:38:20;;;;;;;;;5.00;4.25;;;;;12.16;77.61;100196.66;5058078;28;45533;-77
2022/12/07 04:40:45;;;;;;;;;4.00;3.50;;;;;12.18;77.30;100196.69;5058217;28;45370;-80
2022/12/07 04:43:11;;;;;;;;;5.00;5.00;;;;;12.20;77.41;100206.31;5057948;28;46173;-82
2022/12/07 04:45:36;;;;;;;;;8.00;6.00;;;;;12.21;77.43;100207.19;5058013;28;45393;-82
2022/12/07 04:48:01;;;;;;;;;6.00;6.00;;;;;12.21;77.54;100199.34;5058350;28;45409;-78
2022/12/07 04:50:27;;;;;;;;;6.75;5.50;;;;;12.22;77.30;100195.88;5058244;28;45526;-80
2022/12/07 04:52:52;;;;;;;;;4.25;3.50;;;;;12.22;77.34;100188.91;5057881;28;45496;-82
2022/12/07 04:55:18;;;;;;;;;8.00;6.00;;;;;12.21;77.81;100187.13;5057161;28;45316;-83
2022/12/07 04:57:44;;;;;;;;;4.50;4.00;;;;;12.20;77.71;100189.75;5057978;28;45370;-81
2022/12/07 05:00:10;;;;;;;;;6.00;5.00;;;;;12.20;77.68;100187.13;5057999;28;45202;-81
2022/12/07 05:02:35;;;;;;;;;5.50;5.00;;;;;12.20;77.71;100185.38;5057619;28;45244;-83
2022/12/07 05:05:01;;;;;;;;;6.00;5.75;;;;;12.20;77.88;100188.00;5057941;28;45336;-81
2022/12/07 05:07:26;;;;;;;;;4.50;4.50;;;;;12.21;77.63;100188.88;5057717;28;45243;-82
2022/12/07 05:09:52;;;;;;;;;7.00;4.25;;;;;12.20;77.57;100187.13;5057782;28;45433;-82
2022/12/07 05:12:17;;;;;;;;;4.00;4.00;;;;;11.98;77.80;100150.09;5072966;28;45435;-80
2022/12/07 05:14:43;;;;;;;;;8.00;7.00;;;;;12.16;77.67;100196.66;5057376;28;45310;-79
2022/12/07 05:17:08;;;;;;;;;5.00;5.00;;;;;12.07;77.92;100181.63;5057629;28;45377;-81
2022/12/07 05:19:34;;;;;;;;;5.00;5.00;;;;;12.11;77.99;100187.81;5057808;28;45279;-79
2022/12/07 05:21:59;;;;;;;;;5.50;5.00;;;;;12.02;78.35;100167.59;5057360;28;45633;-80
2022/12/07 05:24:25;;;;;;;;;6.75;6.00;;;;;12.04;77.91;100171.13;5057243;28;45902;-83
2022/12/07 05:26:50;;;;;;;;;5.00;4.75;;;;;12.08;77.93;100169.47;5057386;28;45335;-83
2022/12/07 05:29:17;;;;;;;;;4.00;4.00;;;;;12.20;77.70;100188.00;5057606;28;45358;-83
2022/12/07 05:31:43;;;;;;;;;4.75;4.00;;;;;12.23;77.57;100184.53;5057095;28;45497;-82
2022/12/07 05:34:09;;;;;;;;;5.00;4.00;;;;;12.23;77.63;100189.78;5057163;28;45527;-84
2022/12/07 05:36:35;;;;;;;;;3.75;3.75;;;;;12.24;77.65;100186.31;5057531;28;45341;-81
2022/12/07 05:39:01;;;;;;;;;5.00;5.00;;;;;12.26;77.45;100182.88;5057636;28;45504;-80
2022/12/07 05:44:10;;;;;;;;;6.75;6.00;;;;;12.10;77.61;100149.41;5057091;28;45420;-82
2022/12/07 05:46:36;;;;;;;;;8.00;7.25;;;;;12.30;77.08;100179.44;5057501;28;45250;-67
2022/12/07 05:49:02;;;;;;;;;15.50;13.00;;;;;12.11;77.75;100159.91;5057599;28;45460;-82
2022/12/07 05:51:28;;;;;;;;;11.50;10.00;;;;;12.22;77.78;100177.56;5056801;28;45524;-80
2022/12/07 05:53:54;;;;;;;;;8.00;6.25;;;;;12.24;77.65;100183.69;5056679;28;45528;-82
2022/12/07 05:56:20;;;;;;;;;5.50;5.50;;;;;12.26;77.67;100180.25;5056960;28;45297;-69
2022/12/07 06:01:29;;;;;;;;;6.00;6.00;;;;;12.28;77.48;100180.28;5056592;28;45503;-81
2022/12/07 06:03:55;;;;;;;;;9.50;7.75;;;;;12.28;77.50;100181.16;5056549;28;45576;-79
2022/12/07 06:06:20;;;;;;;;;6.50;6.00;;;;;12.12;77.28;100147.72;5057279;28;45531;-79
2022/12/07 06:08:46;;;;;;;;;6.00;5.00;;;;;12.30;77.29;100178.56;5061053;28;45556;-82
2022/12/07 06:13:56;;;;;;;;;5.00;5.00;;;;;12.31;77.54;100178.59;5060258;28;45242;-82
2022/12/07 06:16:21;;;;;;;;;6.75;5.75;;;;;12.33;76.96;100175.97;5060327;28;45626;-77
2022/12/07 06:18:47;;;;;;;;;5.50;5.00;;;;;12.19;77.36;100156.53;5060309;28;45370;-76
2022/12/07 06:21:12;;;;;;;;;7.00;6.00;;;;;12.29;77.35;100187.25;5060159;28;46058;-79
2022/12/07 06:23:38;;;;;;;;;23.25;16.75;;;;;12.29;77.49;100171.53;5060108;28;45378;-68
2022/12/07 06:26:03;;;;;;;;;19.25;17.00;;;;;12.30;77.67;100183.81;5060501;28;45177;-81
2022/12/07 06:28:29;;;;;;;;;19.00;14.25;;;;;12.29;77.72;100185.50;5059956;28;45611;-76
2022/12/07 06:30:59;;;;;;;;;24.50;23.50;;;;;12.16;78.16;100159.13;5059665;28;46032;-79
2022/12/07 06:33:25;;;;;;;;;35.00;31.25;;;;;12.11;77.47;100156.41;5059919;28;45255;-78
2022/12/07 06:35:51;;;;;;;;;34.25;30.00;;;;;12.25;77.73;100185.44;5058228;28;45326;-82
2022/12/07 06:38:17;;;;;;;;;58.00;45.00;;;;;12.25;77.76;100183.69;5058915;28;45503;-79
2022/12/07 06:40:42;;;;;;;;;12.00;11.75;;;;;12.05;77.49;100144.06;5073711;28;45497;-82
2022/12/07 06:43:08;;;;;;;;;5.00;4.00;;;;;12.29;77.41;100180.28;5055808;28;45343;-83
2022/12/07 06:45:34;;;;;;;;;20.50;19.50;;;;;12.30;77.44;100175.94;5058433;28;45278;-83
2022/12/07 06:47:59;;;;;;;;;11.50;9.50;;;;;12.31;77.25;100173.34;5058444;28;45444;-82
2022/12/07 06:50:25;;;;;;;;;21.50;21.00;;;;;12.31;77.36;100167.22;5057879;28;45303;-83
2022/12/07 06:52:51;;;;;;;;;26.75;23.50;;;;;12.32;77.38;100172.50;5058763;28;45189;-83
2022/12/07 06:55:17;;;;;;;;;18.00;16.50;;;;;12.19;77.21;100148.69;5058721;28;45378;-83
2022/12/07 06:57:43;;;;;;;;;14.75;14.00;;;;;12.36;77.25;100172.56;5058872;28;45532;-76
2022/12/07 07:00:09;;;;;;;;;13.75;12.50;;;;;12.38;77.09;100174.34;5057350;28;46282;-83
2022/12/07 07:02:35;;;;;;;;;20.00;18.25;;;;;12.12;77.02;100119.78;5066044;28;45567;-83
2022/12/07 07:05:00;;;;;;;;;18.75;18.00;;;;;12.22;77.19;100144.38;5058685;28;45498;-83
2022/12/07 07:07:26;;;;;;;;;32.00;30.25;;;;;12.31;77.12;100160.25;5058768;28;45519;-67
2022/12/07 07:09:52;;;;;;;;;32.00;30.50;;;;;12.36;77.18;100173.44;5058547;28;45582;-83
2022/12/07 07:12:17;;;;;;;;;42.25;38.25;;;;;12.37;77.41;100175.19;5059181;28;45433;-83
2022/12/07 07:14:43;;;;;;;;;40.50;36.25;;;;;12.37;77.25;100169.94;5057599;28;45498;-72
2022/12/07 07:17:09;;;;;;;;;25.25;24.50;;;;;12.36;77.65;100164.69;5058826;28;45458;-66
2022/12/07 07:19:34;;;;;;;;;32.00;26.75;;;;;12.40;77.09;100175.25;5058131;28;45299;-71
2022/12/07 07:22:00;;;;;;;;;31.75;26.50;;;;;12.41;77.37;100169.13;5061114;28;45980;-83
2022/12/07 07:24:26;;;;;;;;;19.75;16.75;;;;;12.40;77.41;100170.00;5058566;28;45231;-82
2022/12/07 07:26:51;;;;;;;;;27.00;25.75;;;;;12.40;77.62;100175.25;5060217;28;45540;-81
2022/12/07 07:29:17;;;;;;;;;17.25;14.00;;;;;12.40;77.40;100182.22;5058066;28;45480;-82
2022/12/07 07:31:42;;;;;;;;;14.00;13.25;;;;;12.41;77.55;100182.22;5058100;28;45340;-80
2022/12/07 07:34:08;;;;;;;;;13.00;11.25;;;;;12.43;77.57;100184.88;5059778;28;45417;-84
2022/12/07 07:36:34;;;;;;;;;6.00;6.00;;;;;12.40;77.21;100175.25;5058978;28;45414;-79
2022/12/07 07:38:59;;;;;;;;;6.75;6.25;;;;;12.46;77.31;100184.94;5059187;28;45508;-85
2022/12/07 07:41:25;;;;;;;;;7.00;7.00;;;;;12.47;77.47;100178.84;5059340;28;45461;-92
2022/12/07 07:43:50;;;;;;;;;24.00;22.00;;;;;12.33;77.76;100158.56;5059178;28;45349;-86
2022/12/07 07:46:16;;;;;;;;;16.00;14.50;;;;;12.48;77.60;100185.84;5058531;28;45664;-79
2022/12/07 07:48:41;;;;;;;;;13.50;12.75;;;;;12.50;77.37;100179.75;5072892;28;46455;-72
2022/12/07 07:51:08;;;;;;;;;11.25;11.25;;;;;12.47;77.75;100173.59;5053825;28;45484;-79
2022/12/07 07:53:33;;;;;;;;;12.75;12.75;;;;;12.34;77.97;100167.28;5058321;28;45549;-80
2022/12/07 07:55:59;;;;;;;;;95.00;90.67;;;;;12.39;78.30;100193.53;5057912;28;45441;-80
2022/12/07 07:58:25;;;;;;;;;12.50;11.25;;;;;12.18;78.05;100160.03;5057387;28;46435;-78
2022/12/07 08:00:51;;;;;;;;;20.75;17.25;;;;;12.22;78.16;100177.56;5057677;28;45246;-81
2022/12/07 08:03:16;;;;;;;;;16.25;15.00;;;;;12.31;78.20;100194.31;5058245;28;45681;-78
2022/12/07 08:05:42;;;;;;;;;23.75;21.75;;;;;12.27;78.18;100186.34;5057798;28;45495;-68
2022/12/07 08:08:08;;;;;;;;;16.25;16.00;;;;;12.32;78.26;100192.56;5057497;28;45360;-66
2022/12/07 08:10:35;;;;;;;;;16.50;15.25;;;;;12.19;78.37;100175.75;5057199;28;45900;-67
2022/12/07 08:13:13;;;;;;;;;32.25;31.00;;;;;12.18;78.16;100173.13;5057290;28;45498;-67
2022/12/07 08:15:42;;;;;;;;;38.75;35.50;;;;;12.20;78.21;100169.66;5056374;28;45355;-68
2022/12/07 08:18:08;;;;;;;;;38.50;35.25;;;;;12.36;78.14;100199.63;5056987;28;45492;-82
2022/12/07 08:20:35;;;;;;;;;24.00;22.50;;;;;12.38;78.27;100197.03;5056747;28;45512;-82
2022/12/07 08:23:01;;;;;;;;;63.75;51.50;;;;;12.35;78.21;100203.09;5056891;28;45465;-83
2022/12/07 08:25:27;;;;;;;;;57.50;46.50;;;;;12.37;78.11;100206.59;5057383;28;45446;-76
2022/12/07 08:27:53;;;;;;;;;68.25;55.00;;;;;12.33;78.03;100204.78;5056947;28;45525;-75
2022/12/07 08:30:20;;;;;;;;;45.25;37.00;;;;;12.44;77.70;100208.50;5056399;28;45435;-82
2022/12/07 08:32:46;;;;;;;;;28.00;25.75;;;;;12.47;78.00;100199.78;5057362;28;45173;-72
2022/12/07 08:35:12;;;;;;;;;14.25;14.25;;;;;12.53;77.51;100203.41;5058270;28;45500;-78
2022/12/07 08:37:38;;;;;;;;;21.50;20.75;;;;;12.37;77.28;100175.19;5057269;28;46146;-79
2022/12/07 08:40:06;;;;;;;;;19.00;18.25;;;;;12.61;77.21;100210.50;5057629;28;45497;-77
2022/12/07 08:42:37;;;;;;;;;29.00;27.75;;;;;12.64;77.33;100215.81;5073253;28;45423;-79
2022/12/07 08:45:14;;;;;;;;;31.00;29.50;;;;;12.69;77.29;100214.13;5057729;28;45270;-82
2022/12/07 08:47:50;;;;;;;;;29.00;27.50;;;;;12.71;77.43;100217.66;5057678;28;45448;-82
2022/12/07 08:50:16;;;;;;;;;51.25;41.25;;;;;12.65;77.18;100201.81;5057719;28;45489;-81
2022/12/07 08:52:43;;;;;;;;;60.00;47.50;;;;;12.73;77.07;100211.59;5058097;28;45456;-82
2022/12/07 08:55:12;;;;;;;;;46.00;37.25;;;;;12.80;76.84;100215.19;5058139;28;45551;-79
2022/12/07 08:57:39;;;;;;;;;38.25;35.00;;;;;12.83;77.00;100217.88;5057732;28;46080;-83
2022/12/07 09:00:06;;;;;;;;;49.25;39.75;;;;;12.90;76.80;100224.06;5057510;28;45459;-82
2022/12/07 09:02:32;;;;;;;;;59.25;47.50;;;;;12.68;76.92;100180.91;5057843;28;45521;-82
2022/12/07 09:04:57;;;;;;;;;54.50;44.00;;;;;12.92;76.71;100209.25;5057772;28;45334;-82
2022/12/07 09:07:23;;;;;;;;;35.75;32.50;;;;;13.04;76.70;100233.03;5057414;28;45528;-81
2022/12/07 09:09:49;;;;;;;;;28.50;25.00;;;;;13.08;76.25;100237.44;5057660;28;45354;-82
2022/12/07 09:12:15;;;;;;;;;30.00;27.00;;;;;13.10;76.30;100238.34;5057954;28;45184;-81
2022/12/07 09:14:40;;;;;;;;;20.00;18.75;;;;;13.15;76.32;100246.31;5057826;28;45218;-79
2022/12/07 09:17:09;;;;;;;;;34.75;29.75;;;;;13.15;76.44;100233.19;5057320;28;45449;-82
2022/12/07 09:19:36;;;;;;;;;36.00;32.00;;;;;13.02;76.42;100224.25;5057307;28;45518;-82
2022/12/07 09:22:02;;;;;;;;;44.25;38.25;;;;;13.19;76.72;100234.09;5057379;28;45311;-77
2022/12/07 09:24:27;;;;;;;;;44.00;38.75;;;;;13.18;76.76;100235.84;5057609;28;45476;-82
2022/12/07 09:26:53;;;;;;;;;45.75;37.75;;;;;13.21;76.75;100235.00;5057166;28;45535;-79
2022/12/07 09:29:19;;;;;;;;;37.50;32.00;;;;;13.19;76.63;100224.50;5057106;28;45574;-81
2022/12/07 09:31:45;;;;;;;;;45.00;38.25;;;;;13.27;76.83;100230.75;5057672;28;45352;-81
2022/12/07 09:34:10;;;;;;;;;41.50;35.00;;;;;13.22;77.10;100231.53;5057544;28;45413;-80
2022/12/07 09:36:36;;;;;;;;;24.25;23.00;;;;;13.07;77.07;100192.84;5057055;28;46300;-81
2022/12/07 09:39:04;;;;;;;;;17.25;16.50;;;;;12.67;76.80;100117.16;5057239;28;45227;-81
2022/12/07 09:41:31;;;;;;;;;20.00;17.50;;;;;13.35;76.78;100229.97;5056702;28;45479;-80
2022/12/07 09:44:06;;;;;;;;;15.00;14.00;;;;;13.33;75.74;100237.84;5057188;28;45510;-82
2022/12/07 09:46:38;;;;;;;;;20.25;19.00;;;;;13.31;76.43;100226.47;5056698;28;45339;-81
2022/12/07 09:49:05;;;;;;;;;29.00;25.50;;;;;13.30;75.99;100229.94;5056577;28;45448;-77
2022/12/07 09:51:31;;;;;;;;;28.50;24.75;;;;;13.25;76.26;100234.19;5056550;28;45491;-82
2022/12/07 09:53:59;;;;;;;;;17.00;15.50;;;;;13.26;75.89;100241.22;5056639;28;45424;-78
2022/12/07 09:56:25;;;;;;;;;18.75;17.75;;;;;13.26;75.91;100233.34;5056661;28;46408;-82
2022/12/07 09:59:00;;;;;;;;;32.75;31.00;;;;;13.22;75.96;100226.28;5056754;28;45276;-75
2022/12/07 10:01:32;;;;;;;;;17.25;17.25;;;;;13.32;75.91;100242.19;5056732;28;45267;-82
2022/12/07 10:04:12;;;;;;;;;14.50;12.25;;;;;13.11;75.85;100197.25;5056877;28;45413;-82
2022/12/07 10:06:39;;;;;;;;;16.00;15.25;;;;;13.38;76.33;100248.41;5056461;28;46266;-81
2022/12/07 10:09:12;;;;;;;;;14.00;14.00;;;;;13.38;76.44;100232.66;5056672;28;45406;-81
2022/12/07 10:12:11;;;;;;;;;18.00;17.00;;;;;13.39;76.60;100229.16;5056859;28;45480;-76
2022/12/07 10:14:52;;;;;;;;;19.75;18.50;;;;;13.36;76.44;100211.66;5056810;28;45406;-81
2022/12/07 10:17:32;;;;;;;;;16.00;15.75;;;;;13.53;76.42;100227.63;5056459;28;45946;-81
2022/12/07 10:20:15;;;;;;;;;14.75;14.50;;;;;13.60;76.01;100228.56;5056265;28;45269;-81
2022/12/07 10:23:05;;;;;;;;;13.75;11.25;;;;;13.65;75.82;100226.91;5056474;28;45218;-82
2022/12/07 10:25:33;;;;;;;;;30.50;29.00;;;;;13.70;75.72;100226.06;5056433;28;45334;-78
2022/12/07 10:28:08;;;;;;;;;33.00;31.25;;;;;13.75;76.05;100228.75;5055806;28;46092;-81
2022/12/07 10:31:03;;;;;;;;;28.50;27.25;;;;;13.80;76.22;100226.19;5056097;28;45488;-80
2022/12/07 10:34:20;;;;;;;;;31.25;29.75;;;;;13.88;76.41;100217.53;5049159;28;45389;-72
2022/12/07 10:36:46;;;;;;;;;27.75;25.50;;;;;13.99;76.39;100212.41;4994629;28;45373;-81
2022/12/07 10:39:18;;;;;;;;;24.75;22.75;;;;;14.04;75.64;100207.19;4993695;28;45551;-82
2022/12/07 10:41:58;;;;;;;;;28.25;24.00;;;;;14.10;75.90;100208.13;5031087;28;45571;-81
2022/12/07 10:44:36;;;;;;;;;27.75;24.50;;;;;14.17;75.86;100202.97;5056132;28;46070;-83
2022/12/07 10:47:19;;;;;;;;;14.00;14.00;;;;;14.25;74.74;100203.91;5056215;28;45297;-82
2022/12/07 10:50:25;;;;;;;;;20.00;15.00;;;;;14.33;73.82;100192.59;5055940;28;46136;-80
2022/12/07 10:53:17;;;;;;;;;31.25;30.75;;;;;14.45;74.74;100186.56;4994535;28;45489;-68
2022/12/07 10:55:55;;;;;;;;;36.25;32.00;;;;;14.55;74.72;100177.00;5057347;28;45347;-82
2022/12/07 10:58:45;;;;;;;;;22.00;21.75;;;;;14.65;74.55;100176.25;5060020;28;45499;-72
2022/12/07 11:01:25;;;;;;;;;39.75;34.00;;;;;14.77;73.71;100178.06;5059305;28;46367;-82
2022/12/07 11:04:09;;;;;;;;;28.00;26.25;;;;;14.89;73.52;100162.38;5059598;28;45219;-82
2022/12/07 11:06:51;;;;;;;;;41.25;35.50;;;;;15.02;72.65;100167.69;5059103;28;45333;-68
2022/12/07 11:09:53;;;;;;;;;45.75;38.00;;;;;15.27;72.19;100163.47;5059385;28;45289;-80
2022/12/07 11:12:40;;;;;;;;;45.00;37.50;;;;;15.49;71.45;100156.53;5059550;28;45538;-68
2022/12/07 11:15:21;;;;;;;;;42.75;35.75;;;;;15.61;70.80;100158.31;5059236;28;45378;-70
2022/12/07 11:18:11;;;;;;;;;33.00;31.75;;;;;15.68;70.13;100155.72;5059094;28;45515;-81
2022/12/07 11:20:52;;;;;;;;;39.50;34.25;;;;;15.73;70.04;100147.84;5059152;28;45254;-82
2022/12/07 11:24:09;;;;;;;;;39.25;34.75;;;;;15.83;69.80;100151.38;5058975;28;45531;-83
2022/12/07 11:26:55;;;;;;;;;51.25;40.75;;;;;15.95;69.43;100148.78;5024624;28;45513;-76
2022/12/07 11:29:33;;;;;;;;;55.75;45.25;;;;;16.10;69.03;100145.31;5058954;28;45380;-82
2022/12/07 11:32:15;;;;;;;;;46.00;39.00;;;;;16.29;68.34;100140.91;5059147;28;45459;-70
2022/12/07 11:34:56;;;;;;;;;48.50;39.75;;;;;16.49;67.90;100128.63;5058734;28;46283;-83
2022/12/07 11:37:31;;;;;;;;;18.00;16.25;;;;;16.73;66.13;100124.16;5059025;28;45477;-69
2022/12/07 11:40:19;;;;;;;;;20.50;19.00;;;;;16.94;64.98;100132.97;5058545;28;45532;-69